sensor_id;sensor_type;location;lat;lon;timestamp;pressure;altitude;pressure_sealevel;temperature
24639;BMP180;1641;51.306;12.384;2023-06-10T00:01:47;100048.00;;;20.90
24639;BMP180;1641;51.306;12.384;2023-06-10T00:04:16;100075.00;;;20.60
24639;BMP180;1641;51.306;12.384;2023-06-10T00:06:43;100068.00;;;20.60
24639;BMP180;1641;51.306;12.384;2023-06-10T00:09:09;100039.00;;;20.70
24639;BMP180;1641;51.306;12.384;2023-06-10T00:11:36;100069.00;;;20.40
24639;BMP180;1641;51.306;12.384;2023-06-10T00:14:03;100050.00;;;20.80
24639;BMP180;1641;51.306;12.384;2023-06-10T00:16:28;100032.00;;;20.80
24639;BMP180;1641;51.306;12.384;2023-06-10T00:18:54;100058.00;;;20.80
24639;BMP180;1641;51.306;12.384;2023-06-10T00:21:33;100062.00;;;20.60
24639;BMP180;1641;51.306;12.384;2023-06-10T00:24:08;100065.00;;;20.50
24639;BMP180;1641;51.306;12.384;2023-06-10T00:26:37;100074.00;;;20.40
24639;BMP180;1641;51.306;12.384;2023-06-10T00:29:02;100069.00;;;20.30
24639;BMP180;1641;51.306;12.384;2023-06-10T00:31:28;100073.00;;;20.40
24639;BMP180;1641;51.306;12.384;2023-06-10T00:33:53;100053.00;;;20.60
24639;BMP180;1641;51.306;12.384;2023-06-10T00:36:19;100066.00;;;20.50
24639;BMP180;1641;51.306;12.384;2023-06-10T00:38:44;100060.00;;;20.60
24639;BMP180;1641;51.306;12.384;2023-06-10T00:41:09;100066.00;;;20.50
24639;BMP180;1641;51.306;12.384;2023-06-10T00:43:35;100067.00;;;20.30
24639;BMP180;1641;51.306;12.384;2023-06-10T00:46:00;100057.00;;;20.10
24639;BMP180;1641;51.306;12.384;2023-06-10T00:48:27;100086.00;;;20.20
24639;BMP180;1641;51.306;12.384;2023-06-10T00:50:52;100073.00;;;20.20
24639;BMP180;1641;51.306;12.384;2023-06-10T00:53:18;100081.00;;;20.00
24639;BMP180;1641;51.306;12.384;2023-06-10T00:55:43;100073.00;;;20.00
24639;BMP180;1641;51.306;12.384;2023-06-10T00:58:09;100086.00;;;19.90
24639;BMP180;1641;51.306;12.384;2023-06-10T01:00:34;100077.00;;;19.90
24639;BMP180;1641;51.306;12.384;2023-06-10T01:02:59;100084.00;;;19.90
24639;BMP180;1641;51.306;12.384;2023-06-10T01:05:25;100076.00;;;19.80
24639;BMP180;1641;51.306;12.384;2023-06-10T01:07:59;100080.00;;;19.60
24639;BMP180;1641;51.306;12.384;2023-06-10T01:10:33;100075.00;;;19.60
24639;BMP180;1641;51.306;12.384;2023-06-10T01:13:01;100084.00;;;19.50
24639;BMP180;1641;51.306;12.384;2023-06-10T01:15:32;100078.00;;;19.40
24639;BMP180;1641;51.306;12.384;2023-06-10T01:17:59;100065.00;;;19.30
24639;BMP180;1641;51.306;12.384;2023-06-10T01:20:27;100094.00;;;19.10
24639;BMP180;1641;51.306;12.384;2023-06-10T01:22:56;100075.00;;;19.10
24639;BMP180;1641;51.306;12.384;2023-06-10T01:25:23;100082.00;;;19.30
24639;BMP180;1641;51.306;12.384;2023-06-10T01:27:54;100077.00;;;19.60
24639;BMP180;1641;51.306;12.384;2023-06-10T01:30:25;100088.00;;;19.30
24639;BMP180;1641;51.306;12.384;2023-06-10T01:32:55;100095.00;;;19.40
24639;BMP180;1641;51.306;12.384;2023-06-10T01:35:21;100096.00;;;19.30
24639;BMP180;1641;51.306;12.384;2023-06-10T01:37:48;100083.00;;;19.40
24639;BMP180;1641;51.306;12.384;2023-06-10T01:40:15;100093.00;;;19.50
24639;BMP180;1641;51.306;12.384;2023-06-10T01:42:41;100091.00;;;19.10
24639;BMP180;1641;51.306;12.384;2023-06-10T01:45:06;100097.00;;;19.20
24639;BMP180;1641;51.306;12.384;2023-06-10T01:47:32;100084.00;;;19.10
24639;BMP180;1641;51.306;12.384;2023-06-10T01:49:57;100097.00;;;19.20
24639;BMP180;1641;51.306;12.384;2023-06-10T01:52:22;100103.00;;;19.10
24639;BMP180;1641;51.306;12.384;2023-06-10T01:54:47;100106.00;;;18.90
24639;BMP180;1641;51.306;12.384;2023-06-10T01:57:13;100103.00;;;19.10
24639;BMP180;1641;51.306;12.384;2023-06-10T01:59:38;100102.00;;;19.00
24639;BMP180;1641;51.306;12.384;2023-06-10T02:12:15;100117.00;;;19.20
24639;BMP180;1641;51.306;12.384;2023-06-10T02:14:40;100123.00;;;19.20
24639;BMP180;1641;51.306;12.384;2023-06-10T02:17:06;100118.00;;;19.00
24639;BMP180;1641;51.306;12.384;2023-06-10T02:19:32;100116.00;;;19.00
24639;BMP180;1641;51.306;12.384;2023-06-10T02:21:57;100088.00;;;19.20
24639;BMP180;1641;51.306;12.384;2023-06-10T02:24:22;100121.00;;;19.10
24639;BMP180;1641;51.306;12.384;2023-06-10T02:26:47;100134.00;;;19.00
24639;BMP180;1641;51.306;12.384;2023-06-10T02:29:13;100120.00;;;19.00
24639;BMP180;1641;51.306;12.384;2023-06-10T02:31:38;100124.00;;;18.80
24639;BMP180;1641;51.306;12.384;2023-06-10T02:34:04;100127.00;;;18.70
24639;BMP180;1641;51.306;12.384;2023-06-10T02:36:30;100138.00;;;18.80
24639;BMP180;1641;51.306;12.384;2023-06-10T02:38:58;100126.00;;;18.60
24639;BMP180;1641;51.306;12.384;2023-06-10T02:41:23;100127.00;;;18.50
24639;BMP180;1641;51.306;12.384;2023-06-10T02:43:50;100101.00;;;18.50
24639;BMP180;1641;51.306;12.384;2023-06-10T02:46:15;100118.00;;;18.40
24639;BMP180;1641;51.306;12.384;2023-06-10T02:48:46;100125.00;;;18.40
24639;BMP180;1641;51.306;12.384;2023-06-10T02:51:14;100113.00;;;18.60
24639;BMP180;1641;51.306;12.384;2023-06-10T02:53:42;100115.00;;;18.60
24639;BMP180;1641;51.306;12.384;2023-06-10T02:56:08;100114.00;;;18.50
24639;BMP180;1641;51.306;12.384;2023-06-10T02:58:33;100128.00;;;18.60
24639;BMP180;1641;51.306;12.384;2023-06-10T03:00:58;100127.00;;;18.60
24639;BMP180;1641;51.306;12.384;2023-06-10T03:03:23;100133.00;;;18.30
24639;BMP180;1641;51.306;12.384;2023-06-10T03:05:56;100139.00;;;18.30
24639;BMP180;1641;51.306;12.384;2023-06-10T03:08:24;100131.00;;;18.40
24639;BMP180;1641;51.306;12.384;2023-06-10T03:10:50;100096.00;;;18.50
24639;BMP180;1641;51.306;12.384;2023-06-10T03:13:15;100139.00;;;18.50
24639;BMP180;1641;51.306;12.384;2023-06-10T03:15:41;100138.00;;;18.60
24639;BMP180;1641;51.306;12.384;2023-06-10T03:18:06;100148.00;;;18.60
24639;BMP180;1641;51.306;12.384;2023-06-10T03:20:33;100146.00;;;18.60
24639;BMP180;1641;51.306;12.384;2023-06-10T03:23:04;100155.00;;;18.70
24639;BMP180;1641;51.306;12.384;2023-06-10T03:25:35;100144.00;;;18.80
24639;BMP180;1641;51.306;12.384;2023-06-10T03:28:01;100156.00;;;18.90
24639;BMP180;1641;51.306;12.384;2023-06-10T03:30:27;100163.00;;;18.70
24639;BMP180;1641;51.306;12.384;2023-06-10T03:32:55;100166.00;;;18.90
24639;BMP180;1641;51.306;12.384;2023-06-10T03:35:23;100166.00;;;19.00
24639;BMP180;1641;51.306;12.384;2023-06-10T03:37:49;100163.00;;;18.70
24639;BMP180;1641;51.306;12.384;2023-06-10T03:40:14;100171.00;;;18.90
24639;BMP180;1641;51.306;12.384;2023-06-10T03:42:39;100167.00;;;18.80
24639;BMP180;1641;51.306;12.384;2023-06-10T03:45:05;100170.00;;;18.70
24639;BMP180;1641;51.306;12.384;2023-06-10T03:47:34;100174.00;;;18.70
24639;BMP180;1641;51.306;12.384;2023-06-10T03:50:03;100177.00;;;18.80
24639;BMP180;1641;51.306;12.384;2023-06-10T03:52:31;100188.00;;;18.90
24639;BMP180;1641;51.306;12.384;2023-06-10T03:54:57;100191.00;;;18.90
24639;BMP180;1641;51.306;12.384;2023-06-10T03:57:22;100189.00;;;18.80
24639;BMP180;1641;51.306;12.384;2023-06-10T03:59:50;100193.00;;;19.00
24639;BMP180;1641;51.306;12.384;2023-06-10T04:02:15;100180.00;;;18.90
24639;BMP180;1641;51.306;12.384;2023-06-10T04:04:41;100187.00;;;19.00
24639;BMP180;1641;51.306;12.384;2023-06-10T04:07:06;100169.00;;;19.10
24639;BMP180;1641;51.306;12.384;2023-06-10T04:09:33;100177.00;;;18.60
24639;BMP180;1641;51.306;12.384;2023-06-10T04:11:58;100189.00;;;18.50
24639;BMP180;1641;51.306;12.384;2023-06-10T04:14:23;100198.00;;;18.10
24639;BMP180;1641;51.306;12.384;2023-06-10T04:16:49;100199.00;;;18.40
24639;BMP180;1641;51.306;12.384;2023-06-10T04:19:15;100188.00;;;18.10
24639;BMP180;1641;51.306;12.384;2023-06-10T04:21:41;100181.00;;;18.20
24639;BMP180;1641;51.306;12.384;2023-06-10T04:24:07;100200.00;;;18.30
24639;BMP180;1641;51.306;12.384;2023-06-10T04:26:32;100187.00;;;18.20
24639;BMP180;1641;51.306;12.384;2023-06-10T04:28:58;100197.00;;;18.10
24639;BMP180;1641;51.306;12.384;2023-06-10T04:31:23;100185.00;;;18.10
24639;BMP180;1641;51.306;12.384;2023-06-10T04:33:49;100177.00;;;18.40
24639;BMP180;1641;51.306;12.384;2023-06-10T04:36:14;100186.00;;;18.50
24639;BMP180;1641;51.306;12.384;2023-06-10T04:38:39;100202.00;;;18.20
24639;BMP180;1641;51.306;12.384;2023-06-10T04:41:05;100190.00;;;18.20
24639;BMP180;1641;51.306;12.384;2023-06-10T04:43:33;100193.00;;;18.40
24639;BMP180;1641;51.306;12.384;2023-06-10T04:45:59;100196.00;;;18.50
24639;BMP180;1641;51.306;12.384;2023-06-10T04:48:27;100209.00;;;18.40
24639;BMP180;1641;51.306;12.384;2023-06-10T04:50:56;100204.00;;;18.60
24639;BMP180;1641;51.306;12.384;2023-06-10T04:53:22;100207.00;;;18.50
24639;BMP180;1641;51.306;12.384;2023-06-10T04:55:47;100200.00;;;18.40
24639;BMP180;1641;51.306;12.384;2023-06-10T04:58:13;100206.00;;;18.30
24639;BMP180;1641;51.306;12.384;2023-06-10T05:00:38;100197.00;;;18.40
24639;BMP180;1641;51.306;12.384;2023-06-10T05:03:07;100193.00;;;18.70
24639;BMP180;1641;51.306;12.384;2023-06-10T05:05:33;100195.00;;;18.80
24639;BMP180;1641;51.306;12.384;2023-06-10T05:07:58;100207.00;;;18.80
24639;BMP180;1641;51.306;12.384;2023-06-10T05:10:23;100196.00;;;18.80
24639;BMP180;1641;51.306;12.384;2023-06-10T05:12:49;100201.00;;;18.70
24639;BMP180;1641;51.306;12.384;2023-06-10T05:15:14;100199.00;;;18.90
24639;BMP180;1641;51.306;12.384;2023-06-10T05:17:45;100200.00;;;18.80
24639;BMP180;1641;51.306;12.384;2023-06-10T05:20:11;100204.00;;;18.70
24639;BMP180;1641;51.306;12.384;2023-06-10T05:22:36;100208.00;;;18.90
24639;BMP180;1641;51.306;12.384;2023-06-10T05:25:01;100208.00;;;18.90
24639;BMP180;1641;51.306;12.384;2023-06-10T05:27:27;100206.00;;;18.80
24639;BMP180;1641;51.306;12.384;2023-06-10T05:29:53;100209.00;;;19.30
24639;BMP180;1641;51.306;12.384;2023-06-10T05:32:21;100205.00;;;20.30
24639;BMP180;1641;51.306;12.384;2023-06-10T05:34:53;100212.00;;;20.90
24639;BMP180;1641;51.306;12.384;2023-06-10T05:37:18;100212.00;;;21.80
24639;BMP180;1641;51.306;12.384;2023-06-10T05:39:43;100210.00;;;22.40
24639;BMP180;1641;51.306;12.384;2023-06-10T05:42:09;100219.00;;;22.40
24639;BMP180;1641;51.306;12.384;2023-06-10T05:44:35;100213.00;;;22.60
24639;BMP180;1641;51.306;12.384;2023-06-10T05:47:00;100192.00;;;22.00
24639;BMP180;1641;51.306;12.384;2023-06-10T05:49:26;100228.00;;;22.90
24639;BMP180;1641;51.306;12.384;2023-06-10T05:51:52;100219.00;;;22.90
24639;BMP180;1641;51.306;12.384;2023-06-10T05:54:18;100214.00;;;23.80
24639;BMP180;1641;51.306;12.384;2023-06-10T05:56:43;100214.00;;;23.70
24639;BMP180;1641;51.306;12.384;2023-06-10T05:59:08;100216.00;;;23.90
24639;BMP180;1641;51.306;12.384;2023-06-10T06:01:33;100128.00;;;24.10
24639;BMP180;1641;51.306;12.384;2023-06-10T06:03:59;100211.00;;;24.70
24639;BMP180;1641;51.306;12.384;2023-06-10T06:06:24;100218.00;;;24.40
24639;BMP180;1641;51.306;12.384;2023-06-10T06:08:52;100221.00;;;23.80
24639;BMP180;1641;51.306;12.384;2023-06-10T06:11:18;100218.00;;;23.70
24639;BMP180;1641;51.306;12.384;2023-06-10T06:13:43;100216.00;;;23.90
24639;BMP180;1641;51.306;12.384;2023-06-10T06:16:08;100220.00;;;24.90
24639;BMP180;1641;51.306;12.384;2023-06-10T06:18:34;100216.00;;;25.40
24639;BMP180;1641;51.306;12.384;2023-06-10T06:21:02;100233.00;;;24.10
24639;BMP180;1641;51.306;12.384;2023-06-10T06:23:27;100234.00;;;24.30
24639;BMP180;1641;51.306;12.384;2023-06-10T06:25:53;100239.00;;;24.20
24639;BMP180;1641;51.306;12.384;2023-06-10T06:28:18;100233.00;;;24.70
24639;BMP180;1641;51.306;12.384;2023-06-10T06:30:46;100242.00;;;25.10
24639;BMP180;1641;51.306;12.384;2023-06-10T06:33:11;100236.00;;;26.00
24639;BMP180;1641;51.306;12.384;2023-06-10T06:35:36;100239.00;;;25.70
24639;BMP180;1641;51.306;12.384;2023-06-10T06:38:03;100244.00;;;25.30
24639;BMP180;1641;51.306;12.384;2023-06-10T06:40:35;100256.00;;;25.20
24639;BMP180;1641;51.306;12.384;2023-06-10T06:43:00;100256.00;;;25.70
24639;BMP180;1641;51.306;12.384;2023-06-10T06:45:25;100258.00;;;25.90
24639;BMP180;1641;51.306;12.384;2023-06-10T06:47:51;100248.00;;;25.90
24639;BMP180;1641;51.306;12.384;2023-06-10T06:50:16;100256.00;;;25.50
24639;BMP180;1641;51.306;12.384;2023-06-10T06:52:41;100257.00;;;25.30
24639;BMP180;1641;51.306;12.384;2023-06-10T06:55:10;100254.00;;;25.00
24639;BMP180;1641;51.306;12.384;2023-06-10T06:57:47;100264.00;;;25.80
24639;BMP180;1641;51.306;12.384;2023-06-10T07:00:18;100214.00;;;26.50
24639;BMP180;1641;51.306;12.384;2023-06-10T07:02:44;100233.00;;;26.50
24639;BMP180;1641;51.306;12.384;2023-06-10T07:05:09;100275.00;;;26.40
24639;BMP180;1641;51.306;12.384;2023-06-10T07:07:35;100273.00;;;27.20
24639;BMP180;1641;51.306;12.384;2023-06-10T07:10:04;100275.00;;;26.50
24639;BMP180;1641;51.306;12.384;2023-06-10T07:12:32;100271.00;;;27.20
24639;BMP180;1641;51.306;12.384;2023-06-10T07:15:00;100276.00;;;26.80
24639;BMP180;1641;51.306;12.384;2023-06-10T07:17:26;100275.00;;;28.00
24639;BMP180;1641;51.306;12.384;2023-06-10T07:19:52;100271.00;;;28.10
24639;BMP180;1641;51.306;12.384;2023-06-10T07:22:17;100270.00;;;28.00
24639;BMP180;1641;51.306;12.384;2023-06-10T07:24:55;100244.00;;;28.60
24639;BMP180;1641;51.306;12.384;2023-06-10T07:27:23;100267.00;;;28.80
24639;BMP180;1641;51.306;12.384;2023-06-10T07:29:49;100279.00;;;28.50
24639;BMP180;1641;51.306;12.384;2023-06-10T07:32:24;100289.00;;;27.10
24639;BMP180;1641;51.306;12.384;2023-06-10T07:34:52;100285.00;;;27.10
24639;BMP180;1641;51.306;12.384;2023-06-10T07:37:17;100285.00;;;28.00
24639;BMP180;1641;51.306;12.384;2023-06-10T07:39:44;100288.00;;;26.80
24639;BMP180;1641;51.306;12.384;2023-06-10T07:42:10;100293.00;;;27.20
24639;BMP180;1641;51.306;12.384;2023-06-10T07:44:38;100291.00;;;26.70
24639;BMP180;1641;51.306;12.384;2023-06-10T07:47:04;100289.00;;;27.90
24639;BMP180;1641;51.306;12.384;2023-06-10T07:49:35;100292.00;;;27.60
24639;BMP180;1641;51.306;12.384;2023-06-10T07:52:01;100285.00;;;27.60
24639;BMP180;1641;51.306;12.384;2023-06-10T07:54:26;100277.00;;;28.50
24639;BMP180;1641;51.306;12.384;2023-06-10T07:56:57;100286.00;;;28.90
24639;BMP180;1641;51.306;12.384;2023-06-10T07:59:23;100294.00;;;28.30
24639;BMP180;1641;51.306;12.384;2023-06-10T08:01:48;100290.00;;;29.70
24639;BMP180;1641;51.306;12.384;2023-06-10T08:04:13;100277.00;;;30.40
24639;BMP180;1641;51.306;12.384;2023-06-10T08:06:39;100286.00;;;28.40
24639;BMP180;1641;51.306;12.384;2023-06-10T08:09:22;100295.00;;;27.20
24639;BMP180;1641;51.306;12.384;2023-06-10T08:11:51;100293.00;;;28.40
24639;BMP180;1641;51.306;12.384;2023-06-10T08:14:16;100289.00;;;29.10
24639;BMP180;1641;51.306;12.384;2023-06-10T08:16:42;100299.00;;;27.40
24639;BMP180;1641;51.306;12.384;2023-06-10T08:19:11;100283.00;;;28.10
24639;BMP180;1641;51.306;12.384;2023-06-10T08:21:36;100299.00;;;27.40
24639;BMP180;1641;51.306;12.384;2023-06-10T08:24:02;100291.00;;;26.70
24639;BMP180;1641;51.306;12.384;2023-06-10T08:26:28;100286.00;;;28.60
24639;BMP180;1641;51.306;12.384;2023-06-10T08:28:56;100291.00;;;29.10
24639;BMP180;1641;51.306;12.384;2023-06-10T08:31:21;100289.00;;;28.80
24639;BMP180;1641;51.306;12.384;2023-06-10T08:33:46;100290.00;;;28.80
24639;BMP180;1641;51.306;12.384;2023-06-10T08:36:12;100281.00;;;28.50
24639;BMP180;1641;51.306;12.384;2023-06-10T08:38:46;100278.00;;;28.80
24639;BMP180;1641;51.306;12.384;2023-06-10T08:41:14;100279.00;;;29.30
24639;BMP180;1641;51.306;12.384;2023-06-10T08:43:44;100285.00;;;29.20
24639;BMP180;1641;51.306;12.384;2023-06-10T08:46:12;100282.00;;;29.50
24639;BMP180;1641;51.306;12.384;2023-06-10T08:48:42;100279.00;;;28.50
24639;BMP180;1641;51.306;12.384;2023-06-10T08:51:09;100281.00;;;29.20
24639;BMP180;1641;51.306;12.384;2023-06-10T08:53:46;100273.00;;;30.40
24639;BMP180;1641;51.306;12.384;2023-06-10T08:56:17;100276.00;;;32.40
24639;BMP180;1641;51.306;12.384;2023-06-10T08:58:42;100287.00;;;31.40
24639;BMP180;1641;51.306;12.384;2023-06-10T09:01:08;100288.00;;;30.40
24639;BMP180;1641;51.306;12.384;2023-06-10T09:03:38;100288.00;;;31.10
24639;BMP180;1641;51.306;12.384;2023-06-10T09:06:07;100288.00;;;30.50
24639;BMP180;1641;51.306;12.384;2023-06-10T09:08:33;100291.00;;;30.40
24639;BMP180;1641;51.306;12.384;2023-06-10T09:10:59;100290.00;;;30.20
24639;BMP180;1641;51.306;12.384;2023-06-10T09:13:25;100275.00;;;29.80
24639;BMP180;1641;51.306;12.384;2023-06-10T09:15:50;100254.00;;;30.00
24639;BMP180;1641;51.306;12.384;2023-06-10T09:18:16;100289.00;;;30.90
24639;BMP180;1641;51.306;12.384;2023-06-10T09:20:43;100287.00;;;31.50
24639;BMP180;1641;51.306;12.384;2023-06-10T09:23:08;100262.00;;;29.60
24639;BMP180;1641;51.306;12.384;2023-06-10T09:25:38;100279.00;;;31.40
24639;BMP180;1641;51.306;12.384;2023-06-10T09:28:04;100280.00;;;32.70
24639;BMP180;1641;51.306;12.384;2023-06-10T09:30:32;100278.00;;;31.40
24639;BMP180;1641;51.306;12.384;2023-06-10T09:33:11;100270.00;;;28.90
24639;BMP180;1641;51.306;12.384;2023-06-10T09:35:45;100283.00;;;30.30
24639;BMP180;1641;51.306;12.384;2023-06-10T09:38:20;100288.00;;;31.00
24639;BMP180;1641;51.306;12.384;2023-06-10T09:40:54;100288.00;;;30.50
24639;BMP180;1641;51.306;12.384;2023-06-10T09:43:19;100295.00;;;30.10
24639;BMP180;1641;51.306;12.384;2023-06-10T09:45:48;100278.00;;;29.60
24639;BMP180;1641;51.306;12.384;2023-06-10T09:48:13;100268.00;;;29.50
24639;BMP180;1641;51.306;12.384;2023-06-10T09:50:42;100300.00;;;27.70
24639;BMP180;1641;51.306;12.384;2023-06-10T09:53:09;100278.00;;;29.20
24639;BMP180;1641;51.306;12.384;2023-06-10T09:55:37;100258.00;;;30.60
24639;BMP180;1641;51.306;12.384;2023-06-10T09:58:03;100288.00;;;29.40
24639;BMP180;1641;51.306;12.384;2023-06-10T10:00:28;100303.00;;;27.90
24639;BMP180;1641;51.306;12.384;2023-06-10T10:02:56;100258.00;;;26.70
24639;BMP180;1641;51.306;12.384;2023-06-10T10:05:22;100272.00;;;28.30
24639;BMP180;1641;51.306;12.384;2023-06-10T10:07:48;100269.00;;;28.50
24639;BMP180;1641;51.306;12.384;2023-06-10T10:10:14;100282.00;;;27.80
24639;BMP180;1641;51.306;12.384;2023-06-10T10:12:40;100281.00;;;28.70
24639;BMP180;1641;51.306;12.384;2023-06-10T10:15:10;100275.00;;;27.90
24639;BMP180;1641;51.306;12.384;2023-06-10T10:20:31;100260.00;;;26.50
24639;BMP180;1641;51.306;12.384;2023-06-10T10:22:57;100251.00;;;26.60
24639;BMP180;1641;51.306;12.384;2023-06-10T10:25:27;100244.00;;;27.10
24639;BMP180;1641;51.306;12.384;2023-06-10T10:28:19;100269.00;;;27.20
24639;BMP180;1641;51.306;12.384;2023-06-10T10:30:52;100266.00;;;27.20
24639;BMP180;1641;51.306;12.384;2023-06-10T10:33:58;100262.00;;;26.40
24639;BMP180;1641;51.306;12.384;2023-06-10T10:36:23;100263.00;;;26.60
24639;BMP180;1641;51.306;12.384;2023-06-10T10:38:49;100244.00;;;26.40
24639;BMP180;1641;51.306;12.384;2023-06-10T10:41:15;100254.00;;;27.00
24639;BMP180;1641;51.306;12.384;2023-06-10T10:43:41;100252.00;;;27.30
24639;BMP180;1641;51.306;12.384;2023-06-10T10:46:16;100243.00;;;28.10
24639;BMP180;1641;51.306;12.384;2023-06-10T10:48:42;100244.00;;;27.70
24639;BMP180;1641;51.306;12.384;2023-06-10T10:51:09;100243.00;;;28.00
24639;BMP180;1641;51.306;12.384;2023-06-10T10:53:34;100240.00;;;28.10
24639;BMP180;1641;51.306;12.384;2023-06-10T10:56:13;100235.00;;;28.00
24639;BMP180;1641;51.306;12.384;2023-06-10T10:58:39;100237.00;;;27.20
24639;BMP180;1641;51.306;12.384;2023-06-10T11:01:11;100226.00;;;27.30
24639;BMP180;1641;51.306;12.384;2023-06-10T11:03:45;100216.00;;;27.80
24639;BMP180;1641;51.306;12.384;2023-06-10T11:06:18;100225.00;;;27.90
24639;BMP180;1641;51.306;12.384;2023-06-10T11:11:24;100222.00;;;27.70
24639;BMP180;1641;51.306;12.384;2023-06-10T11:16:29;100214.00;;;27.10
24639;BMP180;1641;51.306;12.384;2023-06-10T11:18:56;100210.00;;;28.00
24639;BMP180;1641;51.306;12.384;2023-06-10T11:21:23;100213.00;;;28.20
24639;BMP180;1641;51.306;12.384;2023-06-10T11:23:49;100199.00;;;28.20
24639;BMP180;1641;51.306;12.384;2023-06-10T11:33:59;100194.00;;;28.40
24639;BMP180;1641;51.306;12.384;2023-06-10T11:36:25;100203.00;;;28.10
24639;BMP180;1641;51.306;12.384;2023-06-10T11:38:55;100164.00;;;27.90
24639;BMP180;1641;51.306;12.384;2023-06-10T11:41:21;100194.00;;;28.30
24639;BMP180;1641;51.306;12.384;2023-06-10T11:43:47;100184.00;;;28.80
24639;BMP180;1641;51.306;12.384;2023-06-10T11:46:13;100162.00;;;29.10
24639;BMP180;1641;51.306;12.384;2023-06-10T11:48:39;100185.00;;;29.30
24639;BMP180;1641;51.306;12.384;2023-06-10T11:51:08;100191.00;;;29.40
24639;BMP180;1641;51.306;12.384;2023-06-10T11:53:33;100196.00;;;29.00
24639;BMP180;1641;51.306;12.384;2023-06-10T11:55:59;100192.00;;;28.70
24639;BMP180;1641;51.306;12.384;2023-06-10T11:58:24;100167.00;;;28.10
24639;BMP180;1641;51.306;12.384;2023-06-10T12:00:54;100176.00;;;27.70
24639;BMP180;1641;51.306;12.384;2023-06-10T12:03:24;100179.00;;;28.50
24639;BMP180;1641;51.306;12.384;2023-06-10T12:06:02;100172.00;;;29.10
24639;BMP180;1641;51.306;12.384;2023-06-10T12:08:28;100169.00;;;29.10
24639;BMP180;1641;51.306;12.384;2023-06-10T12:10:54;100161.00;;;29.10
24639;BMP180;1641;51.306;12.384;2023-06-10T12:13:20;100167.00;;;29.60
24639;BMP180;1641;51.306;12.384;2023-06-10T12:15:46;100155.00;;;30.10
24639;BMP180;1641;51.306;12.384;2023-06-10T12:18:21;100135.00;;;30.10
24639;BMP180;1641;51.306;12.384;2023-06-10T12:20:47;100144.00;;;29.10
24639;BMP180;1641;51.306;12.384;2023-06-10T12:23:14;100148.00;;;29.30
24639;BMP180;1641;51.306;12.384;2023-06-10T12:25:39;100166.00;;;28.80
24639;BMP180;1641;51.306;12.384;2023-06-10T12:28:14;100157.00;;;28.40
24639;BMP180;1641;51.306;12.384;2023-06-10T12:30:40;100178.00;;;27.80
24639;BMP180;1641;51.306;12.384;2023-06-10T12:33:21;100176.00;;;26.80
24639;BMP180;1641;51.306;12.384;2023-06-10T12:35:53;100176.00;;;27.40
24639;BMP180;1641;51.306;12.384;2023-06-10T12:38:25;100168.00;;;27.60
24639;BMP180;1641;51.306;12.384;2023-06-10T12:40:54;100178.00;;;28.00
24639;BMP180;1641;51.306;12.384;2023-06-10T12:43:26;100167.00;;;28.30
24639;BMP180;1641;51.306;12.384;2023-06-10T12:45:51;100162.00;;;28.80
24639;BMP180;1641;51.306;12.384;2023-06-10T12:48:22;100155.00;;;28.90
24639;BMP180;1641;51.306;12.384;2023-06-10T12:51:05;100154.00;;;29.60
24639;BMP180;1641;51.306;12.384;2023-06-10T12:53:30;100168.00;;;29.10
24639;BMP180;1641;51.306;12.384;2023-06-10T12:55:56;100167.00;;;29.20
24639;BMP180;1641;51.306;12.384;2023-06-10T12:58:22;100147.00;;;29.60
24639;BMP180;1641;51.306;12.384;2023-06-10T13:00:49;100182.00;;;28.80
24639;BMP180;1641;51.306;12.384;2023-06-10T13:03:14;100181.00;;;28.70
24639;BMP180;1641;51.306;12.384;2023-06-10T13:05:40;100142.00;;;28.10
24639;BMP180;1641;51.306;12.384;2023-06-10T13:08:06;100173.00;;;27.90
24639;BMP180;1641;51.306;12.384;2023-06-10T13:10:32;100165.00;;;28.40
24639;BMP180;1641;51.306;12.384;2023-06-10T13:12:59;100175.00;;;28.20
24639;BMP180;1641;51.306;12.384;2023-06-10T13:15:24;100185.00;;;27.70
24639;BMP180;1641;51.306;12.384;2023-06-10T13:17:51;100186.00;;;27.30
24639;BMP180;1641;51.306;12.384;2023-06-10T13:20:17;100196.00;;;27.00
24639;BMP180;1641;51.306;12.384;2023-06-10T13:22:42;100182.00;;;26.50
24639;BMP180;1641;51.306;12.384;2023-06-10T13:25:08;100201.00;;;26.10
24639;BMP180;1641;51.306;12.384;2023-06-10T13:27:35;100194.00;;;26.00
24639;BMP180;1641;51.306;12.384;2023-06-10T13:30:00;100180.00;;;25.80
24639;BMP180;1641;51.306;12.384;2023-06-10T13:32:26;100193.00;;;25.70
24639;BMP180;1641;51.306;12.384;2023-06-10T13:34:51;100172.00;;;25.60
24639;BMP180;1641;51.306;12.384;2023-06-10T13:37:18;100194.00;;;25.40
24639;BMP180;1641;51.306;12.384;2023-06-10T13:39:44;100177.00;;;25.50
24639;BMP180;1641;51.306;12.384;2023-06-10T13:42:12;100147.00;;;25.70
24639;BMP180;1641;51.306;12.384;2023-06-10T13:44:37;100186.00;;;25.70
24639;BMP180;1641;51.306;12.384;2023-06-10T13:47:03;100171.00;;;25.60
24639;BMP180;1641;51.306;12.384;2023-06-10T13:49:28;100179.00;;;25.60
24639;BMP180;1641;51.306;12.384;2023-06-10T13:51:54;100179.00;;;25.60
24639;BMP180;1641;51.306;12.384;2023-06-10T13:54:19;100181.00;;;25.80
24639;BMP180;1641;51.306;12.384;2023-06-10T13:56:44;100181.00;;;26.10
24639;BMP180;1641;51.306;12.384;2023-06-10T13:59:09;100162.00;;;26.40
24639;BMP180;1641;51.306;12.384;2023-06-10T14:01:35;100137.00;;;26.70
24639;BMP180;1641;51.306;12.384;2023-06-10T14:04:00;100159.00;;;27.00
24639;BMP180;1641;51.306;12.384;2023-06-10T14:06:26;100144.00;;;26.70
24639;BMP180;1641;51.306;12.384;2023-06-10T14:08:51;100145.00;;;26.90
24639;BMP180;1641;51.306;12.384;2023-06-10T14:11:16;100150.00;;;27.20
24639;BMP180;1641;51.306;12.384;2023-06-10T14:13:41;100152.00;;;27.70
24639;BMP180;1641;51.306;12.384;2023-06-10T14:16:07;100152.00;;;27.00
24639;BMP180;1641;51.306;12.384;2023-06-10T14:18:32;100150.00;;;26.80
24639;BMP180;1641;51.306;12.384;2023-06-10T14:20:58;100151.00;;;27.10
24639;BMP180;1641;51.306;12.384;2023-06-10T14:23:23;100165.00;;;27.60